Time;durP1;ratioP1;P1;durP2;ratioP2;P2;SDS_P1;SDS_P2;PMS_P1;PMS_P2;Temp;Humidity;BMP_temperature;BMP_pressure;BME280_temperature;BME280_humidity;BME280_pressure;Samples;Min_cycle;Max_cycle;Signal;HPM_P1;HPM_P2
2024/01/10 00:01:26;;;;;;;117.47;40.80;;;-15.20;93.80;;;;;;5072531;28;20524;-77
2024/01/10 00:03:53;;;;;;;118.67;38.73;;;-15.20;94.50;;;;;;5072353;28;20071;-82
2024/01/10 00:06:19;;;;;;;106.87;38.37;;;-15.10;94.70;;;;;;5072706;28;20086;-78
2024/01/10 00:08:44;;;;;;;111.30;38.83;;;-15.10;94.50;;;;;;5058712;28;20028;-78
2024/01/10 00:11:10;;;;;;;110.43;41.00;;;-15.20;93.70;;;;;;5054522;28;20080;-77
2024/01/10 00:13:36;;;;;;;107.87;40.47;;;-15.20;93.20;;;;;;5072404;28;20509;-77
2024/01/10 00:16:02;;;;;;;127.20;41.77;;;-15.30;93.00;;;;;;5054687;28;20020;-81
2024/01/10 00:18:27;;;;;;;135.10;43.70;;;-15.30;93.00;;;;;;5054421;28;20123;-82
2024/01/10 00:20:55;;;;;;;121.40;43.57;;;-15.30;93.10;;;;;;5072761;28;20398;-81
2024/01/10 00:23:22;;;;;;;120.50;41.37;;;-15.30;93.50;;;;;;5072298;28;20040;-82
2024/01/10 00:25:48;;;;;;;108.53;42.67;;;-15.30;93.40;;;;;;5054631;28;20187;-82
2024/01/10 00:28:16;;;;;;;124.10;42.90;;;-15.30;93.00;;;;;;5054339;28;20111;-78
2024/01/10 00:30:42;;;;;;;118.70;43.97;;;-15.30;93.20;;;;;;5054557;28;20064;-82
2024/01/10 00:33:07;;;;;;;125.90;42.60;;;-15.30;93.30;;;;;;5072242;28;20103;-78
2024/01/10 00:35:33;;;;;;;142.10;52.80;;;-15.30;93.00;;;;;;5054316;28;20112;-82
2024/01/10 00:37:59;;;;;;;134.83;46.83;;;-15.40;92.80;;;;;;5054143;28;20034;-78
2024/01/10 00:40:25;;;;;;;125.97;44.60;;;-15.40;93.00;;;;;;5072548;28;20474;-82
2024/01/10 00:42:50;;;;;;;133.93;44.30;;;-15.40;92.80;;;;;;5072158;28;20044;-78
2024/01/10 00:45:16;;;;;;;110.03;37.80;;;-15.50;92.60;;;;;;5054343;28;20012;-82
2024/01/10 00:47:42;;;;;;;132.37;43.57;;;-15.50;92.70;;;;;;5072067;28;20031;-77
2024/01/10 00:50:08;;;;;;;138.27;45.37;;;-15.60;92.90;;;;;;5054338;28;20029;-77
2024/01/10 00:52:34;;;;;;;124.70;41.43;;;-15.50;93.10;;;;;;5072000;28;20017;-77
2024/01/10 00:55:00;;;;;;;147.57;42.97;;;-15.50;93.00;;;;;;5072222;28;20036;-81
2024/01/10 00:57:25;;;;;;;129.50;49.43;;;-15.50;93.20;;;;;;5053975;28;20494;-82
2024/01/10 00:59:51;;;;;;;151.67;49.97;;;-15.50;92.60;;;;;;5055822;28;20485;-82
2024/01/10 01:02:16;;;;;;;133.67;44.13;;;-15.60;92.00;;;;;;5075985;28;20032;-77
2024/01/10 01:04:42;;;;;;;126.20;45.20;;;-15.60;92.10;;;;;;5076135;28;20410;-82
2024/01/10 01:07:08;;;;;;;140.90;46.37;;;-15.50;92.00;;;;;;5057856;28;20419;-77
2024/01/10 01:09:34;;;;;;;118.03;43.77;;;-15.50;92.10;;;;;;5076334;28;20028;-77
2024/01/10 01:12:00;;;;;;;110.70;39.50;;;-15.60;91.20;;;;;;5056254;28;20016;-78
2024/01/10 01:14:25;;;;;;;114.43;38.50;;;-15.70;90.70;;;;;;5046279;28;20359;-76
2024/01/10 01:16:51;;;;;;;110.53;38.67;;;-15.70;90.30;;;;;;5057449;28;20492;-80
2024/01/10 01:19:17;;;;;;;110.77;37.73;;;-15.70;90.10;;;;;;5057681;28;20028;-76
2024/01/10 01:21:43;;;;;;;113.57;41.67;;;-15.70;90.90;;;;;;5075765;28;20032;-76
2024/01/10 01:24:08;;;;;;;120.37;40.60;;;-15.80;89.90;;;;;;5075697;28;20028;-77
2024/01/10 01:26:34;;;;;;;131.60;39.83;;;-15.80;90.20;;;;;;5075304;28;20024;-79
2024/01/10 01:29:00;;;;;;;157.67;47.43;;;-15.80;90.30;;;;;;5057641;28;20378;-80
2024/01/10 01:31:25;;;;;;;113.30;40.07;;;-15.90;89.60;;;;;;5052822;28;20107;-80
2024/01/10 01:33:51;;;;;;;123.03;40.87;;;-15.90;89.20;;;;;;5075594;28;20049;-80
2024/01/10 01:36:17;;;;;;;105.10;36.87;;;-15.90;89.30;;;;;;5075398;28;20028;-77
2024/01/10 01:38:43;;;;;;;96.67;33.07;;;-15.90;89.20;;;;;;5054178;28;20052;-78
2024/01/10 01:41:08;;;;;;;106.57;34.83;;;-15.90;89.20;;;;;;5070303;28;20469;-79
2024/01/10 01:43:35;;;;;;;90.67;31.63;;;-16.00;89.30;;;;;;5057181;28;20028;-80
2024/01/10 01:46:02;;;;;;;88.07;31.73;;;-16.00;89.50;;;;;;5074950;28;20020;-77
2024/01/10 01:48:28;;;;;;;104.37;36.60;;;-16.00;89.50;;;;;;5075082;28;20032;-80
2024/01/10 01:51:00;;;;;;;97.80;35.60;;;-16.00;89.80;;;;;;5056057;28;20379;-77
2024/01/10 01:53:28;;;;;;;92.22;31.17;;;-16.00;89.70;;;;;;5056896;28;20025;-80
2024/01/10 01:55:54;;;;;;;72.03;29.30;;;-16.00;89.50;;;;;;5075255;28;20044;-79
2024/01/10 01:58:22;;;;;;;73.13;29.73;;;-16.10;89.70;;;;;;5057325;28;20437;-77
2024/01/10 02:00:48;;;;;;;99.03;33.07;;;-16.10;90.30;;;;;;5057084;28;20025;-77
2024/01/10 02:03:13;;;;;;;90.43;32.10;;;-16.00;90.70;;;;;;5056447;28;20082;-77
2024/01/10 02:05:39;;;;;;;97.77;33.27;;;-16.00;90.30;;;;;;5074588;28;20016;-80
2024/01/10 02:08:05;;;;;;;92.63;34.17;;;-16.10;90.10;;;;;;5074877;28;20474;-81
2024/01/10 02:10:31;;;;;;;100.03;32.80;;;-16.10;89.80;;;;;;5074129;28;20040;-81
2024/01/10 02:12:57;;;;;;;83.67;31.43;;;-16.10;89.80;;;;;;5056826;28;20075;-80
2024/01/10 02:15:24;;;;;;;98.13;32.20;;;-16.10;90.10;;;;;;5056462;28;20066;-77
2024/01/10 02:17:49;;;;;;;117.13;39.10;;;-16.10;90.00;;;;;;5074764;28;20397;-77
2024/01/10 02:20:20;;;;;;;93.23;34.23;;;-16.10;89.50;;;;;;5074706;28;20078;-77
2024/01/10 02:22:46;;;;;;;100.20;32.10;;;-16.20;88.80;;;;;;5074339;28;20470;-77
2024/01/10 02:25:13;;;;;;;92.40;31.97;;;-16.20;88.70;;;;;;5055849;28;20107;-80
2024/01/10 02:27:42;;;;;;;103.87;35.10;;;-16.20;89.00;;;;;;5056497;28;20023;-80
2024/01/10 02:30:10;;;;;;;97.13;34.60;;;-16.20;89.00;;;;;;5056375;28;20065;-77
2024/01/10 02:32:36;;;;;;;111.87;35.23;;;-16.30;88.90;;;;;;5073138;28;20041;-77
2024/01/10 02:35:02;;;;;;;91.83;31.73;;;-16.30;89.10;;;;;;5073211;28;20008;-77
2024/01/10 02:37:28;;;;;;;94.63;29.77;;;-16.30;89.30;;;;;;5074326;28;20031;-77
2024/01/10 02:39:54;;;;;;;88.47;32.07;;;-16.30;89.30;;;;;;5056562;28;20021;-81
2024/01/10 02:42:19;;;;;;;78.03;28.20;;;-16.30;89.20;;;;;;5056265;28;20029;-77
2024/01/10 02:44:45;;;;;;;91.03;28.20;;;-16.30;88.80;;;;;;5074191;28;20060;-79
2024/01/10 02:47:11;;;;;;;73.50;25.93;;;-16.30;88.90;;;;;;5056252;28;20078;-79
2024/01/10 02:49:37;;;;;;;59.30;23.60;;;-16.30;89.20;;;;;;5056244;28;20074;-79
2024/01/10 02:52:03;;;;;;;80.30;28.93;;;-16.30;89.30;;;;;;5056222;28;20025;-80
2024/01/10 02:54:29;;;;;;;100.50;29.80;;;-16.30;89.20;;;;;;5056196;28;20043;-80
2024/01/10 02:56:54;;;;;;;91.63;34.13;;;-16.40;88.20;;;;;;5056019;28;20016;-81
2024/01/10 02:59:20;;;;;;;84.80;27.70;;;-16.50;87.60;;;;;;5074023;28;20032;-82
2024/01/10 03:01:46;;;;;;;68.90;27.67;;;-16.50;88.10;;;;;;5073945;28;20095;-82
2024/01/10 03:04:11;;;;;;;60.17;25.40;;;-16.50;88.80;;;;;;5071870;28;20130;-81
2024/01/10 03:06:37;;;;;;;39.17;18.07;;;-16.50;89.20;;;;;;5055614;28;20467;-82
2024/01/10 03:09:03;;;;;;;40.97;17.20;;;-16.50;89.00;;;;;;5059766;28;20013;-81
2024/01/10 03:11:29;;;;;;;43.93;19.93;;;-16.50;88.70;;;;;;5073549;28;20024;-77
2024/01/10 03:14:08;;;;;;;59.33;21.13;;;-16.50;88.70;;;;;;5055812;28;20020;-77
2024/01/10 03:16:34;;;;;;;43.40;17.43;;;-16.50;88.90;;;;;;5073500;28;20383;-77
2024/01/10 03:19:00;;;;;;;51.03;20.13;;;-16.50;89.00;;;;;;5055385;28;20036;-83
2024/01/10 03:21:26;;;;;;;54.87;19.83;;;-16.50;89.40;;;;;;5055132;28;20017;-77
2024/01/10 03:23:58;;;;;;;56.77;19.27;;;-16.50;89.50;;;;;;5072680;28;20497;-77
2024/01/10 03:26:25;;;;;;;51.37;20.37;;;-16.40;89.60;;;;;;5055433;28;20024;-78
2024/01/10 03:28:51;;;;;;;73.07;26.23;;;-16.40;89.30;;;;;;5055341;28;20507;-81
2024/01/10 03:31:17;;;;;;;106.73;35.03;;;-16.60;88.20;;;;;;5073153;28;20028;-81
2024/01/10 03:33:43;;;;;;;88.03;29.97;;;-16.60;87.90;;;;;;5055358;28;20131;-81
2024/01/10 03:36:14;;;;;;;76.40;30.07;;;-16.60;87.70;;;;;;5055204;28;20452;-77
2024/01/10 03:38:40;;;;;;;109.13;32.33;;;-16.60;87.50;;;;;;5054818;28;20103;-82
2024/01/10 03:41:06;;;;;;;90.17;32.47;;;-16.60;87.80;;;;;;5055296;28;20108;-80
2024/01/10 03:43:32;;;;;;;93.83;30.83;;;-16.60;88.30;;;;;;5072834;28;20086;-80
2024/01/10 03:45:58;;;;;;;83.07;30.73;;;-16.60;87.90;;;;;;5055355;28;20025;-79
2024/01/10 03:48:24;;;;;;;83.33;30.93;;;-16.70;87.30;;;;;;5073072;28;20108;-77
2024/01/10 03:50:50;;;;;;;98.30;30.47;;;-16.60;87.40;;;;;;5072645;28;20410;-76
2024/01/10 03:53:15;;;;;;;93.67;34.70;;;-16.60;87.60;;;;;;5072594;28;20031;-80
2024/01/10 03:55:41;;;;;;;93.83;33.57;;;-16.70;87.90;;;;;;5055042;28;20017;-79
2024/01/10 03:58:07;;;;;;;84.97;31.33;;;-16.70;87.80;;;;;;5072627;28;20095;-78
2024/01/10 04:00:33;;;;;;;86.83;29.93;;;-16.70;87.50;;;;;;5055028;28;20044;-77
2024/01/10 04:02:59;;;;;;;78.20;27.37;;;-16.70;87.30;;;;;;5072491;28;20024;-76
2024/01/10 04:05:25;;;;;;;86.17;30.77;;;-16.80;87.50;;;;;;5054965;28;20027;-79
2024/01/10 04:07:51;;;;;;;68.03;24.63;;;-16.90;87.20;;;;;;5072293;28;20017;-79
2024/01/10 04:10:17;;;;;;;64.03;26.07;;;-17.00;87.50;;;;;;5072863;28;20080;-76
2024/01/10 04:12:44;;;;;;;73.93;28.97;;;-16.90;88.00;;;;;;5066362;28;20029;-76
2024/01/10 04:15:10;;;;;;;69.07;27.47;;;-16.90;88.50;;;;;;5054785;28;20024;-79
2024/01/10 04:17:36;;;;;;;72.73;26.87;;;-16.90;88.90;;;;;;5072434;28;20058;-76
2024/01/10 04:20:02;;;;;;;87.90;32.10;;;-16.80;89.20;;;;;;5054469;28;20111;-77
2024/01/10 04:22:28;;;;;;;80.07;30.00;;;-16.80;89.20;;;;;;5054007;28;20039;-77
2024/01/10 04:24:57;;;;;;;73.37;28.23;;;-16.80;89.30;;;;;;5072364;28;20485;-76
2024/01/10 04:27:23;;;;;;;82.43;28.17;;;-16.80;89.80;;;;;;5072587;28;20027;-76
2024/01/10 04:29:48;;;;;;;89.37;31.53;;;-16.70;90.10;;;;;;5054471;28;20009;-80
2024/01/10 04:32:14;;;;;;;67.07;27.53;;;-16.70;89.80;;;;;;5072376;28;20056;-77
2024/01/10 04:34:40;;;;;;;83.73;27.53;;;-16.70;89.70;;;;;;5054085;28;20035;-77
2024/01/10 04:37:06;;;;;;;85.03;27.00;;;-16.70;89.20;;;;;;5050872;28;20060;-80
2024/01/10 04:39:33;;;;;;;73.27;26.80;;;-16.70;88.70;;;;;;5066093;28;20390;-80
2024/01/10 04:41:59;;;;;;;75.30;27.93;;;-16.70;88.50;;;;;;5042514;28;20103;-77
2024/01/10 04:44:25;;;;;;;77.83;27.13;;;-16.80;87.80;;;;;;5054264;28;20115;-80
2024/01/10 04:46:51;;;;;;;96.70;28.63;;;-16.90;86.70;;;;;;5054191;28;20044;-76
2024/01/10 04:49:17;;;;;;;80.33;28.70;;;-17.00;86.30;;;;;;5072318;28;20492;-80
2024/01/10 04:51:43;;;;;;;93.47;29.53;;;-16.90;86.80;;;;;;5054151;28;20020;-80
2024/01/10 04:54:09;;;;;;;87.90;30.97;;;-16.90;87.00;;;;;;5071847;28;20016;-80
2024/01/10 04:56:36;;;;;;;97.53;35.17;;;-16.90;87.00;;;;;;5054421;28;20047;-76
2024/01/10 04:59:02;;;;;;;80.27;31.10;;;-16.90;87.00;;;;;;5072146;28;20066;-79
2024/01/10 05:01:28;;;;;;;86.20;29.40;;;-17.00;86.80;;;;;;5054238;28;20024;-80
2024/01/10 05:03:54;;;;;;;77.63;27.40;;;-16.90;87.10;;;;;;5072062;28;20055;-80
2024/01/10 05:06:20;;;;;;;79.00;29.27;;;-16.90;87.20;;;;;;5064507;28;20025;-80
2024/01/10 05:08:46;;;;;;;94.23;31.17;;;-16.90;87.30;;;;;;5069254;28;20428;-81
2024/01/10 05:11:13;;;;;;;71.27;27.73;;;-16.90;87.60;;;;;;5071356;28;20025;-80
2024/01/10 05:13:39;;;;;;;81.90;29.97;;;-16.90;87.70;;;;;;5055033;28;20401;-76
2024/01/10 05:16:05;;;;;;;72.13;26.47;;;-16.90;87.50;;;;;;5054157;28;20017;-82
2024/01/10 05:18:30;;;;;;;75.27;27.17;;;-16.90;87.30;;;;;;5053773;28;20060;-76
2024/01/10 05:20:57;;;;;;;77.43;27.23;;;-16.90;87.40;;;;;;5071764;28;20074;-81
2024/01/10 05:23:23;;;;;;;70.97;28.80;;;-16.90;87.70;;;;;;5053743;28;20097;-82
2024/01/10 05:25:49;;;;;;;82.87;30.37;;;-16.80;87.60;;;;;;5071911;28;20020;-81
2024/01/10 05:28:15;;;;;;;85.63;31.33;;;-16.80;87.70;;;;;;5072066;28;20478;-77
2024/01/10 05:30:42;;;;;;;86.93;29.47;;;-16.80;87.60;;;;;;5053932;28;20478;-77
2024/01/10 05:33:08;;;;;;;82.17;27.83;;;-16.90;87.30;;;;;;5071803;28;20537;-77
2024/01/10 05:35:35;;;;;;;75.13;24.30;;;-17.00;86.50;;;;;;5071868;28;20020;-80
2024/01/10 05:38:02;;;;;;;62.07;25.47;;;-17.00;86.10;;;;;;5071826;28;20470;-79
2024/01/10 05:40:30;;;;;;;112.10;36.23;;;-17.10;85.70;;;;;;5071752;28;20490;-76
2024/01/10 05:42:56;;;;;;;233.83;68.80;;;-17.10;85.50;;;;;;5046523;28;20389;-79
2024/01/10 05:45:22;;;;;;;213.77;62.83;;;-17.10;85.30;;;;;;5054278;28;20016;-77
2024/01/10 05:47:48;;;;;;;189.13;56.73;;;-17.10;85.20;;;;;;5075352;28;20027;-77
2024/01/10 05:50:14;;;;;;;982.50;300.30;;;-17.20;85.30;;;;;;5074976;28;20024;-76
2024/01/10 05:52:40;;;;;;;1552.20;466.53;;;-17.10;85.60;;;;;;5071632;28;20024;-76
2024/01/10 05:55:08;;;;;;;1113.37;362.77;;;-17.10;85.70;;;;;;5080303;28;20036;-77
2024/01/10 05:57:35;;;;;;;633.83;184.50;;;-17.20;85.20;;;;;;5068410;28;20013;-76
2024/01/10 06:00:00;;;;;;;542.20;142.17;;;-17.20;85.20;;;;;;5061624;28;20021;-77
2024/01/10 06:02:26;;;;;;;198.30;57.40;;;-17.20;85.30;;;;;;5080704;28;20111;-76
2024/01/10 06:04:52;;;;;;;217.77;60.10;;;-17.20;85.10;;;;;;5081414;28;20509;-77
2024/01/10 06:07:18;;;;;;;180.73;54.03;;;-17.20;85.10;;;;;;5080529;28;20037;-77
2024/01/10 06:09:45;;;;;;;131.40;47.50;;;-17.20;85.50;;;;;;5068337;28;20017;-77
2024/01/10 06:12:10;;;;;;;141.10;46.17;;;-17.20;85.80;;;;;;5071222;28;20032;-76
2024/01/10 06:14:36;;;;;;;148.20;47.20;;;-17.20;86.20;;;;;;5055487;28;20016;-76
2024/01/10 06:17:03;;;;;;;162.03;50.40;;;-17.20;86.40;;;;;;5053785;28;20036;-76
2024/01/10 06:19:30;;;;;;;166.10;46.87;;;-17.20;86.60;;;;;;5072343;28;20378;-77
2024/01/10 06:21:57;;;;;;;137.10;41.10;;;-17.20;86.80;;;;;;5070700;28;20020;-77
2024/01/10 06:24:22;;;;;;;153.23;46.47;;;-17.10;87.00;;;;;;5054871;28;20057;-77
2024/01/10 06:26:49;;;;;;;185.47;58.87;;;-17.10;87.10;;;;;;5076883;28;20067;-76
2024/01/10 06:29:15;;;;;;;266.20;73.80;;;-17.10;86.90;;;;;;5057774;28;20048;-77
2024/01/10 06:31:41;;;;;;;235.93;71.30;;;-17.10;86.90;;;;;;5055248;28;20032;-77
2024/01/10 06:34:07;;;;;;;235.07;69.50;;;-17.10;87.20;;;;;;5050189;28;20044;-80
2024/01/10 06:36:33;;;;;;;221.10;69.20;;;-17.10;87.40;;;;;;5054246;28;20032;-80
2024/01/10 06:38:58;;;;;;;223.03;69.37;;;-17.00;87.40;;;;;;5071978;28;20013;-80
2024/01/10 06:41:24;;;;;;;241.07;66.70;;;-17.00;87.50;;;;;;5068340;28;20086;-79
2024/01/10 06:43:53;;;;;;;222.80;65.57;;;-17.00;87.10;;;;;;5053496;28;20039;-79
2024/01/10 06:46:20;;;;;;;521.17;140.10;;;-17.00;87.00;;;;;;5053888;28;20033;-81
2024/01/10 06:48:46;;;;;;;341.00;99.80;;;-17.10;86.60;;;;;;5060124;28;20028;-80
2024/01/10 06:51:16;;;;;;;419.17;111.63;;;-17.10;86.00;;;;;;5053757;28;20012;-80
2024/01/10 06:53:42;;;;;;;622.47;169.43;;;-17.10;85.90;;;;;;5053699;28;20029;-79
2024/01/10 06:56:09;;;;;;;490.33;137.10;;;-17.10;86.00;;;;;;5071707;28;20104;-79
2024/01/10 06:58:35;;;;;;;530.13;154.90;;;-17.10;86.00;;;;;;5072655;28;20066;-80
2024/01/10 07:01:00;;;;;;;357.67;97.80;;;-17.00;86.00;;;;;;5053509;28;20024;-80
2024/01/10 07:03:27;;;;;;;324.30;91.90;;;-17.00;86.00;;;;;;5055534;28;20033;-80
2024/01/10 07:05:52;;;;;;;199.83;61.70;;;-17.00;86.00;;;;;;5071682;28;20025;-79
2024/01/10 07:08:18;;;;;;;203.47;58.73;;;-17.00;85.90;;;;;;5073149;28;20043;-80
2024/01/10 07:10:44;;;;;;;197.23;53.33;;;-17.00;85.60;;;;;;5055366;28;20497;-80
2024/01/10 07:13:10;;;;;;;141.80;48.00;;;-16.90;85.80;;;;;;5072560;28;20107;-80
2024/01/10 07:15:37;;;;;;;120.30;41.57;;;-16.90;86.10;;;;;;5055196;28;20020;-80
2024/01/10 07:18:02;;;;;;;94.97;38.57;;;-16.80;86.40;;;;;;5071938;28;20104;-79
2024/01/10 07:20:28;;;;;;;166.60;49.83;;;-16.80;86.80;;;;;;5073278;28;20111;-80
2024/01/10 07:22:54;;;;;;;177.87;55.30;;;-16.70;87.40;;;;;;5054368;28;20466;-79
2024/01/10 07:25:22;;;;;;;140.57;44.33;;;-16.60;87.10;;;;;;5058918;28;20036;-77
2024/01/10 07:27:47;;;;;;;97.40;33.53;;;-16.60;86.90;;;;;;5055204;28;20016;-78
2024/01/10 07:30:13;;;;;;;123.17;40.67;;;-16.60;86.90;;;;;;5062395;28;20086;-78
2024/01/10 07:32:45;;;;;;;154.73;48.83;;;-16.50;87.80;;;;;;5054689;28;20044;-79
2024/01/10 07:35:12;;;;;;;178.93;51.83;;;-16.40;88.20;;;;;;5054949;28;20055;-78
2024/01/10 07:37:39;;;;;;;172.13;52.50;;;-16.30;88.20;;;;;;5055298;28;20029;-77
2024/01/10 07:40:06;;;;;;;182.47;57.23;;;-16.20;88.40;;;;;;5055503;28;20021;-79
2024/01/10 07:42:32;;;;;;;189.43;55.30;;;-16.10;88.90;;;;;;5045421;28;20115;-78
2024/01/10 07:44:58;;;;;;;169.53;50.43;;;-15.90;89.30;;;;;;5056948;28;20098;-77
2024/01/10 07:47:24;;;;;;;148.93;46.37;;;-15.80;89.50;;;;;;5060531;28;20028;-77
2024/01/10 07:49:50;;;;;;;127.53;44.93;;;-15.60;90.10;;;;;;5074201;28;20036;-77
2024/01/10 07:52:19;;;;;;;120.17;41.07;;;-15.50;90.50;;;;;;5056140;28;20035;-78
2024/01/10 07:54:44;;;;;;;115.77;38.20;;;-15.30;90.90;;;;;;5070561;28;20028;-78
2024/01/10 07:57:11;;;;;;;121.73;38.63;;;-15.20;91.00;;;;;;5069307;28;20021;-77
2024/01/10 07:59:36;;;;;;;202.30;56.77;;;-15.00;91.20;;;;;;5069065;28;20024;-77
2024/01/10 08:02:02;;;;;;;134.67;46.27;;;-14.90;91.50;;;;;;5061204;28;20043;-77
2024/01/10 08:04:27;;;;;;;159.97;49.63;;;-14.70;91.50;;;;;;5052319;28;20119;-77
2024/01/10 08:06:53;;;;;;;225.97;68.47;;;-14.60;91.40;;;;;;5052607;28;20013;-77
2024/01/10 08:09:19;;;;;;;246.27;68.43;;;-14.40;91.30;;;;;;5053857;28;20047;-78
2024/01/10 08:11:45;;;;;;;197.70;60.10;;;-14.30;91.00;;;;;;5053013;28;20047;-78
2024/01/10 08:14:17;;;;;;;183.43;59.77;;;-14.10;90.80;;;;;;5063004;28;20028;-77
2024/01/10 08:16:44;;;;;;;151.32;46.47;;;-13.90;90.80;;;;;;5071512;28;20439;-77
2024/01/10 08:19:11;;;;;;;182.33;58.73;;;-13.80;90.80;;;;;;5068272;28;20032;-77
2024/01/10 08:21:39;;;;;;;165.20;56.63;;;-13.60;91.30;;;;;;5086781;28;20024;-77
2024/01/10 08:24:06;;;;;;;183.67;63.40;;;-13.50;91.90;;;;;;5082896;28;20098;-75
2024/01/10 08:26:31;;;;;;;198.23;70.77;;;-13.40;92.50;;;;;;5071436;28;20031;-77
2024/01/10 08:28:57;;;;;;;253.23;82.37;;;-13.20;92.80;;;;;;5079758;28;20044;-77
2024/01/10 08:31:23;;;;;;;311.07;100.80;;;-13.10;92.70;;;;;;5085892;28;20028;-77
2024/01/10 08:33:49;;;;;;;321.57;106.90;;;-13.10;92.30;;;;;;5062243;28;20048;-75
2024/01/10 08:36:15;;;;;;;379.23;128.23;;;-12.90;92.60;;;;;;5079752;28;20017;-75
2024/01/10 08:38:41;;;;;;;261.40;92.77;;;-12.80;93.00;;;;;;5075202;28;20024;-77
2024/01/10 08:41:13;;;;;;;237.67;81.30;;;-12.60;93.30;;;;;;5062430;28;20032;-77
2024/01/10 08:43:39;;;;;;;411.60;139.02;;;-12.50;93.60;;;;;;5054356;28;20033;-77
2024/01/10 08:46:04;;;;;;;375.17;129.30;;;-12.30;94.00;;;;;;5081821;28;20363;-77
2024/01/10 08:48:30;;;;;;;256.67;80.60;;;-12.10;94.20;;;;;;5073716;28;20029;-78
2024/01/10 08:50:56;;;;;;;179.13;62.87;;;-12.00;94.00;;;;;;5080908;28;20036;-78
2024/01/10 08:53:22;;;;;;;147.53;53.93;;;-11.80;93.90;;;;;;5059404;28;20062;-78
2024/01/10 08:55:48;;;;;;;160.23;54.00;;;-11.70;94.10;;;;;;5061085;28;20042;-78
2024/01/10 08:58:14;;;;;;;142.57;49.67;;;-11.60;93.90;;;;;;5055571;28;20021;-77
2024/01/10 09:00:39;;;;;;;119.07;45.27;;;-11.40;94.10;;;;;;5058465;28;20028;-78
2024/01/10 09:03:05;;;;;;;114.93;41.10;;;-11.20;93.90;;;;;;5079268;28;20115;-78
2024/01/10 09:05:31;;;;;;;608.70;198.67;;;-11.00;93.30;;;;;;5065321;28;20021;-77
2024/01/10 09:07:57;;;;;;;205.37;64.00;;;-10.90;92.70;;;;;;5066499;28;20020;-77
2024/01/10 09:10:28;;;;;;;118.77;45.30;;;-10.60;92.60;;;;;;5055744;28;20141;-78
2024/01/10 09:12:54;;;;;;;106.53;37.67;;;-10.40;92.20;;;;;;5069309;28;20109;-77
2024/01/10 09:15:20;;;;;;;124.50;45.63;;;-10.30;90.50;;;;;;5053343;28;20067;-78
2024/01/10 09:17:45;;;;;;;175.47;56.90;;;-10.10;89.50;;;;;;5065029;28;20031;-78
2024/01/10 09:20:13;;;;;;;169.87;58.87;;;-9.90;88.60;;;;;;5072697;28;20033;-75
2024/01/10 09:22:39;;;;;;;175.13;58.73;;;-9.80;87.70;;;;;;5080577;28;20052;-76
2024/01/10 09:25:05;;;;;;;159.00;52.50;;;-9.60;86.60;;;;;;5063606;28;20418;-76
2024/01/10 09:27:35;;;;;;;162.47;54.13;;;-9.50;84.80;;;;;;5065878;28;20024;-77
2024/01/10 09:30:01;;;;;;;146.13;54.73;;;-9.30;83.80;;;;;;5062538;28;20033;-77
2024/01/10 09:32:28;;;;;;;149.93;55.30;;;-9.20;82.80;;;;;;5064478;28;20024;-76
2024/01/10 09:34:58;;;;;;;146.03;54.50;;;-9.00;82.30;;;;;;5060235;28;20040;-77
2024/01/10 09:37:23;;;;;;;141.57;50.87;;;-8.90;81.90;;;;;;5064242;28;20028;-77
2024/01/10 09:39:49;;;;;;;136.80;51.83;;;-8.70;81.60;;;;;;5060066;28;20020;-77
2024/01/10 09:42:15;;;;;;;113.80;44.80;;;-8.60;81.50;;;;;;5071312;28;20016;-76
2024/01/10 09:44:41;;;;;;;130.50;44.47;;;-8.40;81.00;;;;;;5092304;28;20028;-77
2024/01/10 09:47:11;;;;;;;106.43;38.43;;;-8.30;80.30;;;;;;5068097;28;20027;-77
2024/01/10 09:49:37;;;;;;;77.40;30.90;;;-8.20;79.80;;;;;;5086663;28;20032;-76
2024/01/10 09:52:04;;;;;;;63.97;28.77;;;-8.10;79.30;;;;;;5067978;28;20038;-77
2024/01/10 09:54:34;;;;;;;61.17;23.80;;;-8.00;78.90;;;;;;5088231;28;20016;-77
2024/01/10 09:57:00;;;;;;;64.53;23.70;;;-7.90;78.10;;;;;;5085073;28;20048;-77
2024/01/10 09:59:26;;;;;;;58.37;24.40;;;-7.80;77.10;;;;;;5091050;28;20030;-76
2024/01/10 10:01:57;;;;;;;67.73;26.80;;;-7.60;76.50;;;;;;5063080;28;20146;-77
2024/01/10 10:04:27;;;;;;;69.07;27.27;;;-7.50;75.70;;;;;;5073901;28;20437;-77
2024/01/10 10:07:02;;;;;;;74.03;29.70;;;-7.40;75.20;;;;;;5068184;28;20090;-78
2024/01/10 10:09:29;;;;;;;99.82;40.22;;;-7.30;75.40;;;;;;5087324;28;20016;-78
2024/01/10 10:11:55;;;;;;;76.87;31.93;;;-7.20;74.40;;;;;;5061622;28;20039;-78
2024/01/10 10:14:22;;;;;;;70.57;27.93;;;-7.10;74.70;;;;;;5069852;28;20417;-77
2024/01/10 10:16:48;;;;;;;60.25;24.17;;;-7.10;74.40;;;;;;5073912;28;20169;-77
2024/01/10 10:19:23;;;;;;;70.97;27.27;;;-7.00;74.00;;;;;;5086136;28;20534;-77
2024/01/10 10:21:48;;;;;;;55.13;24.55;;;-6.90;73.60;;;;;;5057133;28;20113;-79
2024/01/10 10:24:14;;;;;;;61.72;24.67;;;-6.80;73.60;;;;;;5068125;28;20482;-78
2024/01/10 10:26:41;;;;;;;56.85;25.23;;;-6.70;73.30;;;;;;5089296;28;20466;-78
2024/01/10 10:29:07;;;;;;;48.78;22.20;;;-6.60;73.00;;;;;;5081899;28;20043;-78
2024/01/10 10:31:32;;;;;;;49.60;23.83;;;-6.50;73.00;;;;;;5063233;28;20514;-78
2024/01/10 10:34:03;;;;;;;55.85;21.45;;;-6.40;72.70;;;;;;5062769;28;20052;-77
2024/01/10 10:36:32;;;;;;;54.47;22.77;;;-6.40;72.30;;;;;;5087865;28;20056;-78
2024/01/10 10:39:03;;;;;;;50.58;20.05;;;-6.30;72.10;;;;;;5079792;28;20088;-77
2024/01/10 10:41:32;;;;;;;49.20;20.27;;;-6.30;71.90;;;;;;5077606;28;20598;-77
2024/01/10 10:43:58;;;;;;;42.80;17.05;;;-6.20;71.90;;;;;;5084698;28;20020;-77
2024/01/10 10:46:27;;;;;;;38.25;17.05;;;-6.20;71.90;;;;;;5067631;28;20044;-77
2024/01/10 10:48:54;;;;;;;45.15;19.95;;;-6.10;71.70;;;;;;5084078;28;20031;-77
2024/01/10 10:51:41;;;;;;;39.28;16.90;;;-6.10;71.50;;;;;;5059708;28;20035;-77
2024/01/10 10:54:09;;;;;;;35.78;15.98;;;-6.00;71.20;;;;;;5059250;28;20047;-76
2024/01/10 10:56:37;;;;;;;35.60;16.90;;;-6.00;71.10;;;;;;5081296;28;20044;-77
2024/01/10 10:59:04;;;;;;;36.13;18.27;;;-5.90;70.80;;;;;;5074704;28;20031;-76
2024/01/10 11:01:31;;;;;;;39.97;17.27;;;-5.90;70.70;;;;;;5074820;28;20032;-77
2024/01/10 11:03:58;;;;;;;46.85;17.52;;;-5.80;70.70;;;;;;5060507;28;20036;-77
2024/01/10 11:06:24;;;;;;;44.50;17.77;;;-5.70;70.70;;;;;;5075033;28;20390;-77
2024/01/10 11:09:06;;;;;;;43.80;21.23;;;-5.70;70.50;;;;;;5081212;28;20024;-77
2024/01/10 11:11:32;;;;;;;48.95;21.95;;;-5.60;70.40;;;;;;5055072;28;20032;-78
2024/01/10 11:14:07;;;;;;;46.55;20.70;;;-5.60;70.30;;;;;;5082740;28;20062;-77
2024/01/10 11:17:09;;;;;;;56.28;25.63;;;-5.40;70.30;;;;;;5067181;28;20036;-76
2024/01/10 11:20:09;;;;;;;52.65;25.23;;;-5.30;70.40;;;;;;5078218;28;20021;-78
2024/01/10 11:23:10;;;;;;;47.63;22.13;;;-5.30;70.40;;;;;;5073016;28;20044;-77
2024/01/10 11:25:36;;;;;;;68.32;25.77;;;-5.20;70.60;;;;;;5073164;28;20535;-77
2024/01/10 11:28:05;;;;;;;59.95;25.77;;;-5.10;70.70;;;;;;5084564;28;20105;-77
2024/01/10 11:30:43;;;;;;;62.75;28.92;;;-5.00;70.60;;;;;;5073507;28;20079;-76
2024/01/10 11:33:30;;;;;;;68.40;29.30;;;-4.90;70.60;;;;;;5064312;28;20048;-77
2024/01/10 11:36:09;;;;;;;77.25;31.30;;;-4.90;70.00;;;;;;5056050;28;20030;-76
2024/01/10 11:38:44;;;;;;;69.88;30.02;;;-4.80;70.20;;;;;;5074151;28;20417;-77
2024/01/10 11:41:46;;;;;;;64.65;27.30;;;-4.80;70.00;;;;;;5072078;28;20031;-77
2024/01/10 11:44:12;;;;;;;69.60;31.05;;;-4.70;69.80;;;;;;5048265;28;20045;-78
2024/01/10 11:46:39;;;;;;;66.13;30.75;;;-4.70;69.90;;;;;;5079212;28;20536;-76
2024/01/10 11:49:16;;;;;;;67.53;28.35;;;-4.70;70.00;;;;;;5072250;28;20116;-77
2024/01/10 11:51:46;;;;;;;64.15;26.70;;;-4.60;70.00;;;;;;5072938;28;20095;-77
2024/01/10 11:54:12;;;;;;;72.88;29.60;;;-4.60;69.60;;;;;;5084567;28;20028;-76
2024/01/10 11:56:40;;;;;;;68.97;29.13;;;-4.60;69.20;;;;;;5069204;28;20043;-76
2024/01/10 11:59:11;;;;;;;79.88;32.67;;;-4.60;69.20;;;;;;5062815;28;20082;-77
2024/01/10 12:01:38;;;;;;;89.55;37.55;;;-4.60;69.30;;;;;;5087292;28;20024;-77
2024/01/10 12:04:04;;;;;;;76.75;33.00;;;-4.50;69.50;;;;;;5080272;28;20477;-78
2024/01/10 12:06:31;;;;;;;72.68;31.63;;;-4.50;69.80;;;;;;5082651;28;20082;-76
2024/01/10 12:08:57;;;;;;;68.57;29.67;;;-4.50;70.00;;;;;;5067605;28;20027;-77
2024/01/10 12:11:23;;;;;;;69.63;30.92;;;-4.50;70.20;;;;;;5063013;28;20024;-75
2024/01/10 12:13:49;;;;;;;60.83;28.65;;;-4.40;70.00;;;;;;5069979;28;20024;-77